sensor_id;sensor_type;location;lat;lon;timestamp;pressure;altitude;pressure_sealevel;temperature;humidity
3524;BME280;1776;53.330;11.498;2023-04-08T00:01:12;23219.09;;;-147.39;76.63
3524;BME280;1776;53.330;11.498;2023-04-08T00:03:37;23243.50;;;-147.39;76.61
3524;BME280;1776;53.330;11.498;2023-04-08T00:06:03;23245.53;;;-147.39;76.55
3524;BME280;1776;53.330;11.498;2023-04-08T00:08:28;23251.63;;;-147.39;76.17
3524;BME280;1776;53.330;11.498;2023-04-08T00:10:54;23247.56;;;-147.39;76.14
3524;BME280;1776;53.330;11.498;2023-04-08T00:13:20;23265.84;;;-147.39;76.03
3524;BME280;1776;53.330;11.498;2023-04-08T00:15:45;23308.53;;;-147.39;75.71
3524;BME280;1776;53.330;11.498;2023-04-08T00:18:12;23247.56;;;-147.39;75.97
3524;BME280;1776;53.330;11.498;2023-04-08T00:20:37;23267.88;;;-147.39;75.78
3524;BME280;1776;53.330;11.498;2023-04-08T00:23:02;23257.72;;;-147.39;75.62
3524;BME280;1776;53.330;11.498;2023-04-08T00:25:28;23298.38;;;-147.39;75.83
3524;BME280;1776;53.330;11.498;2023-04-08T00:27:53;23243.50;;;-147.39;75.80
3524;BME280;1776;53.330;11.498;2023-04-08T00:30:18;23259.75;;;-147.39;75.75
3524;BME280;1776;53.330;11.498;2023-04-08T00:32:44;23231.28;;;-147.39;75.68
3524;BME280;1776;53.330;11.498;2023-04-08T00:35:09;23249.59;;;-147.39;75.34
3524;BME280;1776;53.330;11.498;2023-04-08T00:37:34;23265.84;;;-147.39;75.50
3524;BME280;1776;53.330;11.498;2023-04-08T00:39:59;23304.47;;;-147.39;75.95
3524;BME280;1776;53.330;11.498;2023-04-08T00:42:25;23247.56;;;-147.39;75.78
3524;BME280;1776;53.330;11.498;2023-04-08T00:44:50;23231.28;;;-147.39;75.73
3524;BME280;1776;53.330;11.498;2023-04-08T00:47:16;23227.22;;;-147.39;75.65
3524;BME280;1776;53.330;11.498;2023-04-08T00:49:42;23259.75;;;-147.39;75.73
3524;BME280;1776;53.330;11.498;2023-04-08T00:52:08;23377.66;;;-147.39;75.82
3524;BME280;1776;53.330;11.498;2023-04-08T00:54:35;23245.53;;;-147.39;75.77
3524;BME280;1776;53.330;11.498;2023-04-08T00:57:01;23223.16;;;-147.39;76.12
3524;BME280;1776;53.330;11.498;2023-04-08T00:59:28;23221.13;;;-147.39;76.23
3524;BME280;1776;53.330;11.498;2023-04-08T01:01:58;23229.25;;;-147.39;75.85
3524;BME280;1776;53.330;11.498;2023-04-08T01:04:39;23213.00;;;-147.39;75.87
3524;BME280;1776;53.330;11.498;2023-04-08T01:07:17;23255.69;;;-147.39;75.28
3524;BME280;1776;53.330;11.498;2023-04-08T01:09:48;23249.59;;;-147.39;75.58
3524;BME280;1776;53.330;11.498;2023-04-08T01:12:24;23196.75;;;-147.39;75.21
3524;BME280;1776;53.330;11.498;2023-04-08T01:14:54;23225.19;;;-147.39;75.87
3524;BME280;1776;53.330;11.498;2023-04-08T01:17:21;23233.34;;;-147.39;75.39
3524;BME280;1776;53.330;11.498;2023-04-08T01:19:48;23253.66;;;-147.39;75.41
3524;BME280;1776;53.330;11.498;2023-04-08T01:25:18;23237.41;;;-147.39;75.81
3524;BME280;1776;53.330;11.498;2023-04-08T01:27:44;23223.16;;;-147.39;75.98
3524;BME280;1776;53.330;11.498;2023-04-08T01:30:11;23194.72;;;-147.39;76.24
3524;BME280;1776;53.330;11.498;2023-04-08T01:32:37;23223.16;;;-147.39;76.17
3524;BME280;1776;53.330;11.498;2023-04-08T01:35:05;23196.75;;;-147.39;76.47
3524;BME280;1776;53.330;11.498;2023-04-08T01:37:32;23176.41;;;-147.39;76.86
3524;BME280;1776;53.330;11.498;2023-04-08T01:39:58;23156.09;;;-147.39;77.21
3524;BME280;1776;53.330;11.498;2023-04-08T01:42:27;23158.13;;;-147.39;77.29
3524;BME280;1776;53.330;11.498;2023-04-08T01:44:56;23168.28;;;-147.39;77.14
3524;BME280;1776;53.330;11.498;2023-04-08T01:47:23;23109.34;;;-147.39;77.39
3524;BME280;1776;53.330;11.498;2023-04-08T01:49:51;23109.34;;;-147.39;77.28
3524;BME280;1776;53.330;11.498;2023-04-08T01:52:17;23158.13;;;-147.39;77.04
3524;BME280;1776;53.330;11.498;2023-04-08T01:54:44;23117.47;;;-147.39;77.06
3524;BME280;1776;53.330;11.498;2023-04-08T01:57:13;23117.47;;;-147.39;76.82
3524;BME280;1776;53.330;11.498;2023-04-08T01:59:39;23160.16;;;-147.39;77.16
3524;BME280;1776;53.330;11.498;2023-04-08T02:02:07;23125.59;;;-147.39;77.07
3524;BME280;1776;53.330;11.498;2023-04-08T02:04:34;23113.41;;;-147.39;77.40
3524;BME280;1776;53.330;11.498;2023-04-08T02:07:00;23099.16;;;-147.39;77.47
3524;BME280;1776;53.330;11.498;2023-04-08T02:09:26;23080.88;;;-147.39;77.13
3524;BME280;1776;53.330;11.498;2023-04-08T02:11:52;23078.84;;;-147.39;77.43
3524;BME280;1776;53.330;11.498;2023-04-08T02:14:17;23086.97;;;-147.39;77.65
3524;BME280;1776;53.330;11.498;2023-04-08T02:16:49;23099.16;;;-147.39;77.84
3524;BME280;1776;53.330;11.498;2023-04-08T02:19:34;23074.78;;;-147.39;77.55
3524;BME280;1776;53.330;11.498;2023-04-08T02:22:11;23066.66;;;-147.39;77.78
3524;BME280;1776;53.330;11.498;2023-04-08T02:24:39;23038.19;;;-147.39;78.25
3524;BME280;1776;53.330;11.498;2023-04-08T02:27:06;23030.06;;;-147.39;78.57
3524;BME280;1776;53.330;11.498;2023-04-08T02:29:35;23003.63;;;-147.39;78.51
3524;BME280;1776;53.330;11.498;2023-04-08T02:32:03;22979.25;;;-147.39;78.60
3524;BME280;1776;53.330;11.498;2023-04-08T02:34:29;22971.09;;;-147.39;79.19
3524;BME280;1776;53.330;11.498;2023-04-08T02:36:55;22954.84;;;-147.39;79.45
3524;BME280;1776;53.330;11.498;2023-04-08T02:39:20;22914.19;;;-147.39;79.71
3524;BME280;1776;53.330;11.498;2023-04-08T02:41:45;22942.66;;;-147.39;79.40
3524;BME280;1776;53.330;11.498;2023-04-08T02:44:11;22920.28;;;-147.39;79.72
3524;BME280;1776;53.330;11.498;2023-04-08T02:46:36;22290.22;;;-147.39;79.77
3524;BME280;1776;53.330;11.498;2023-04-08T02:49:01;22926.38;;;-147.39;79.22
3524;BME280;1776;53.330;11.498;2023-04-08T02:51:26;22908.09;;;-147.39;79.11
3524;BME280;1776;53.330;11.498;2023-04-08T02:53:52;22948.75;;;-147.39;79.13
3524;BME280;1776;53.330;11.498;2023-04-08T02:56:18;22883.69;;;-147.39;78.99
3524;BME280;1776;53.330;11.498;2023-04-08T02:58:43;22950.78;;;-147.39;78.78
3524;BME280;1776;53.330;11.498;2023-04-08T03:01:08;22930.44;;;-147.39;78.24
3524;BME280;1776;53.330;11.498;2023-04-08T03:03:33;22912.16;;;-147.39;78.68
3524;BME280;1776;53.330;11.498;2023-04-08T03:05:59;22950.78;;;-147.39;78.45
3524;BME280;1776;53.330;11.498;2023-04-08T03:08:25;22877.59;;;-147.39;78.59
3524;BME280;1776;53.330;11.498;2023-04-08T03:10:50;22897.94;;;-147.39;78.56
3524;BME280;1776;53.330;11.498;2023-04-08T03:13:16;22889.81;;;-147.39;78.62
3524;BME280;1776;53.330;11.498;2023-04-08T03:15:41;22906.06;;;-147.39;78.56
3524;BME280;1776;53.330;11.498;2023-04-08T03:18:07;22916.22;;;-147.39;78.62
3524;BME280;1776;53.330;11.498;2023-04-08T03:20:32;22914.19;;;-147.39;78.41
3524;BME280;1776;53.330;11.498;2023-04-08T03:22:58;22883.69;;;-147.39;78.67
3524;BME280;1776;53.330;11.498;2023-04-08T03:25:23;22889.81;;;-147.39;78.72
3524;BME280;1776;53.330;11.498;2023-04-08T03:27:48;22893.88;;;-147.39;78.82
3524;BME280;1776;53.330;11.498;2023-04-08T03:30:14;22859.31;;;-147.39;79.00
3524;BME280;1776;53.330;11.498;2023-04-08T03:32:39;22830.84;;;-147.39;79.40
3524;BME280;1776;53.330;11.498;2023-04-08T03:35:05;22841.00;;;-147.39;79.06
3524;BME280;1776;53.330;11.498;2023-04-08T03:37:30;22828.81;;;-147.39;79.36
3524;BME280;1776;53.330;11.498;2023-04-08T03:39:56;22861.34;;;-147.39;78.96
3524;BME280;1776;53.330;11.498;2023-04-08T03:42:21;22836.94;;;-147.39;79.19
3524;BME280;1776;53.330;11.498;2023-04-08T03:44:46;22853.22;;;-147.39;79.02
3524;BME280;1776;53.330;11.498;2023-04-08T03:47:12;22841.00;;;-147.39;78.93
3524;BME280;1776;53.330;11.498;2023-04-08T03:49:37;22843.06;;;-147.39;79.61
3524;BME280;1776;53.330;11.498;2023-04-08T03:52:02;22802.41;;;-147.39;79.59
3524;BME280;1776;53.330;11.498;2023-04-08T03:54:27;22841.00;;;-147.39;79.58
3524;BME280;1776;53.330;11.498;2023-04-08T03:56:54;22798.34;;;-147.39;79.43
3524;BME280;1776;53.330;11.498;2023-04-08T03:59:19;22796.31;;;-147.39;79.06
3524;BME280;1776;53.330;11.498;2023-04-08T04:01:45;22853.22;;;-147.39;79.05
3524;BME280;1776;53.330;11.498;2023-04-08T04:04:11;22867.44;;;-147.39;78.77
3524;BME280;1776;53.330;11.498;2023-04-08T04:06:36;22828.81;;;-147.39;78.80
3524;BME280;1776;53.330;11.498;2023-04-08T04:09:02;22877.59;;;-147.39;78.54
3524;BME280;1776;53.330;11.498;2023-04-08T04:11:27;22824.75;;;-147.39;78.94
3524;BME280;1776;53.330;11.498;2023-04-08T04:13:52;22782.06;;;-147.39;78.95
3524;BME280;1776;53.330;11.498;2023-04-08T04:16:18;22806.47;;;-147.39;79.17
3524;BME280;1776;53.330;11.498;2023-04-08T04:18:43;22765.81;;;-147.39;79.35
3524;BME280;1776;53.330;11.498;2023-04-08T04:21:08;22771.91;;;-147.39;79.34
3524;BME280;1776;53.330;11.498;2023-04-08T04:23:34;22757.69;;;-147.39;79.79
3524;BME280;1776;53.330;11.498;2023-04-08T04:25:59;22753.63;;;-147.39;79.53
3524;BME280;1776;53.330;11.498;2023-04-08T04:28:24;22767.84;;;-147.39;79.62
3524;BME280;1776;53.330;11.498;2023-04-08T04:30:50;22796.31;;;-147.39;79.33
3524;BME280;1776;53.330;11.498;2023-04-08T04:33:15;22769.88;;;-147.39;78.81
3524;BME280;1776;53.330;11.498;2023-04-08T04:35:40;22790.19;;;-147.39;78.85
3524;BME280;1776;53.330;11.498;2023-04-08T04:38:06;22816.63;;;-147.39;78.84
3524;BME280;1776;53.330;11.498;2023-04-08T04:40:35;22782.06;;;-147.39;78.82
3524;BME280;1776;53.330;11.498;2023-04-08T04:43:01;22806.47;;;-147.39;78.40
3524;BME280;1776;53.330;11.498;2023-04-08T04:45:26;22775.97;;;-147.39;78.75
3524;BME280;1776;53.330;11.498;2023-04-08T04:47:51;22816.63;;;-147.39;78.46
3524;BME280;1776;53.330;11.498;2023-04-08T04:50:16;22800.38;;;-147.39;78.79
3524;BME280;1776;53.330;11.498;2023-04-08T04:52:42;22778.00;;;-147.39;78.87
3524;BME280;1776;53.330;11.498;2023-04-08T04:55:07;22778.00;;;-147.39;79.30
3524;BME280;1776;53.330;11.498;2023-04-08T04:57:33;22739.38;;;-147.39;79.46
3524;BME280;1776;53.330;11.498;2023-04-08T04:59:58;22782.06;;;-147.39;79.41
3524;BME280;1776;53.330;11.498;2023-04-08T05:02:23;22747.50;;;-147.39;79.36
3524;BME280;1776;53.330;11.498;2023-04-08T05:04:49;22741.41;;;-147.39;79.78
3524;BME280;1776;53.330;11.498;2023-04-08T05:07:14;22867.44;;;-147.39;79.79
3524;BME280;1776;53.330;11.498;2023-04-08T05:09:39;22719.06;;;-147.39;79.66
3524;BME280;1776;53.330;11.498;2023-04-08T05:12:05;22715.00;;;-147.39;79.38
3524;BME280;1776;53.330;11.498;2023-04-08T05:14:30;22715.00;;;-147.39;79.49
3524;BME280;1776;53.330;11.498;2023-04-08T05:16:55;22763.78;;;-147.39;79.24
3524;BME280;1776;53.330;11.498;2023-04-08T05:19:21;22721.09;;;-147.39;79.83
3524;BME280;1776;53.330;11.498;2023-04-08T05:21:46;22733.28;;;-147.39;79.18
3524;BME280;1776;53.330;11.498;2023-04-08T05:24:11;22723.13;;;-147.39;79.59
3524;BME280;1776;53.330;11.498;2023-04-08T05:26:37;22715.00;;;-147.39;79.66
3524;BME280;1776;53.330;11.498;2023-04-08T05:29:02;22723.13;;;-147.39;79.35
3524;BME280;1776;53.330;11.498;2023-04-08T05:31:27;22712.97;;;-147.39;79.60
3524;BME280;1776;53.330;11.498;2023-04-08T05:33:52;22717.03;;;-147.39;79.18
3524;BME280;1776;53.330;11.498;2023-04-08T05:36:18;22747.50;;;-147.39;78.84
3524;BME280;1776;53.330;11.498;2023-04-08T05:38:43;22704.84;;;-147.39;79.10
3524;BME280;1776;53.330;11.498;2023-04-08T05:41:09;22706.88;;;-147.39;79.57
3524;BME280;1776;53.330;11.498;2023-04-08T05:43:34;22704.84;;;-147.39;79.28
3524;BME280;1776;53.330;11.498;2023-04-08T05:46:05;22725.16;;;-147.39;78.87
3524;BME280;1776;53.330;11.498;2023-04-08T05:48:31;22712.97;;;-147.39;79.02
3524;BME280;1776;53.330;11.498;2023-04-08T05:50:56;22719.06;;;-147.39;79.18
3524;BME280;1776;53.330;11.498;2023-04-08T05:53:21;22735.31;;;-147.39;79.10
3524;BME280;1776;53.330;11.498;2023-04-08T05:55:48;22723.13;;;-147.39;78.69
3524;BME280;1776;53.330;11.498;2023-04-08T05:58:13;22708.91;;;-147.39;78.97
3524;BME280;1776;53.330;11.498;2023-04-08T06:00:39;22731.25;;;-147.39;79.11
3524;BME280;1776;53.330;11.498;2023-04-08T06:03:04;22723.13;;;-147.39;79.37
3524;BME280;1776;53.330;11.498;2023-04-08T06:05:30;22676.38;;;-147.39;79.39
3524;BME280;1776;53.330;11.498;2023-04-08T06:07:55;22721.09;;;-147.39;79.50
3524;BME280;1776;53.330;11.498;2023-04-08T06:10:20;22682.47;;;-147.39;79.43
3524;BME280;1776;53.330;11.498;2023-04-08T06:12:46;22658.09;;;-147.39;79.46
3524;BME280;1776;53.330;11.498;2023-04-08T06:15:11;22715.00;;;-147.39;79.14
3524;BME280;1776;53.330;11.498;2023-04-08T06:17:36;22678.41;;;-147.39;79.00
3524;BME280;1776;53.330;11.498;2023-04-08T06:20:02;22757.69;;;-147.39;78.71
3524;BME280;1776;53.330;11.498;2023-04-08T06:22:28;22731.25;;;-147.39;78.28
3524;BME280;1776;53.330;11.498;2023-04-08T06:24:53;22741.41;;;-147.39;78.22
3524;BME280;1776;53.330;11.498;2023-04-08T06:27:19;22725.16;;;-147.39;78.33
3524;BME280;1776;53.330;11.498;2023-04-08T06:29:45;22806.47;;;-147.39;77.90
3524;BME280;1776;53.330;11.498;2023-04-08T06:32:11;22767.84;;;-147.39;78.05
3524;BME280;1776;53.330;11.498;2023-04-08T06:34:36;22765.81;;;-147.39;78.09
3524;BME280;1776;53.330;11.498;2023-04-08T06:37:02;22780.03;;;-147.39;77.79
3524;BME280;1776;53.330;11.498;2023-04-08T06:39:27;22751.59;;;-147.39;78.28
3524;BME280;1776;53.330;11.498;2023-04-08T06:41:53;22763.78;;;-147.39;78.02
3524;BME280;1776;53.330;11.498;2023-04-08T06:44:18;22794.25;;;-147.39;77.94
3524;BME280;1776;53.330;11.498;2023-04-08T06:46:44;22761.75;;;-147.39;77.63
3524;BME280;1776;53.330;11.498;2023-04-08T06:49:09;22755.66;;;-147.39;78.43
3524;BME280;1776;53.330;11.498;2023-04-08T06:51:34;22708.91;;;-147.39;78.81
3524;BME280;1776;53.330;11.498;2023-04-08T06:54:00;22727.19;;;-147.39;78.60
3524;BME280;1776;53.330;11.498;2023-04-08T06:56:26;22710.94;;;-147.39;79.14
3524;BME280;1776;53.330;11.498;2023-04-08T06:58:51;22717.03;;;-147.39;78.94
3524;BME280;1776;53.330;11.498;2023-04-08T07:01:17;22698.75;;;-147.39;79.07
3524;BME280;1776;53.330;11.498;2023-04-08T07:03:42;22723.13;;;-147.39;79.03
3524;BME280;1776;53.330;11.498;2023-04-08T07:06:08;22735.31;;;-147.39;78.94
3524;BME280;1776;53.330;11.498;2023-04-08T07:08:33;22721.09;;;-147.39;79.07
3524;BME280;1776;53.330;11.498;2023-04-08T07:10:58;22747.50;;;-147.39;79.09
3524;BME280;1776;53.330;11.498;2023-04-08T07:13:24;22688.56;;;-147.39;79.22
3524;BME280;1776;53.330;11.498;2023-04-08T07:15:49;22700.78;;;-147.39;79.29
3524;BME280;1776;53.330;11.498;2023-04-08T07:18:14;22731.25;;;-147.39;79.07
3524;BME280;1776;53.330;11.498;2023-04-08T07:20:39;22672.31;;;-147.39;79.29
3524;BME280;1776;53.330;11.498;2023-04-08T07:23:06;22708.91;;;-147.39;79.32
3524;BME280;1776;53.330;11.498;2023-04-08T07:25:32;22700.78;;;-147.39;78.59
3524;BME280;1776;53.330;11.498;2023-04-08T07:27:58;22739.38;;;-147.39;78.53
3524;BME280;1776;53.330;11.498;2023-04-08T07:30:23;22739.38;;;-147.39;78.47
3524;BME280;1776;53.330;11.498;2023-04-08T07:32:48;22773.94;;;-147.39;78.42
3524;BME280;1776;53.330;11.498;2023-04-08T07:35:14;22751.59;;;-147.39;78.67
3524;BME280;1776;53.330;11.498;2023-04-08T07:37:39;22721.09;;;-147.39;78.51
3524;BME280;1776;53.330;11.498;2023-04-08T07:40:05;22723.13;;;-147.39;78.77
3524;BME280;1776;53.330;11.498;2023-04-08T07:42:30;22741.41;;;-147.39;78.30
3524;BME280;1776;53.330;11.498;2023-04-08T07:44:55;22698.75;;;-147.39;78.63
3524;BME280;1776;53.330;11.498;2023-04-08T07:47:21;22692.63;;;-147.39;78.78
3524;BME280;1776;53.330;11.498;2023-04-08T07:49:46;22696.69;;;-147.39;78.62
3524;BME280;1776;53.330;11.498;2023-04-08T07:52:12;22727.19;;;-147.39;78.64
3524;BME280;1776;53.330;11.498;2023-04-08T07:54:37;22731.25;;;-147.39;78.71
3524;BME280;1776;53.330;11.498;2023-04-08T07:57:03;22739.38;;;-147.39;78.24
3524;BME280;1776;53.330;11.498;2023-04-08T07:59:28;22769.88;;;-147.39;77.87
3524;BME280;1776;53.330;11.498;2023-04-08T08:01:53;22745.47;;;-147.39;77.84
3524;BME280;1776;53.330;11.498;2023-04-08T08:04:19;22753.63;;;-147.39;77.76
3524;BME280;1776;53.330;11.498;2023-04-08T08:06:45;22763.78;;;-147.39;77.74
3524;BME280;1776;53.330;11.498;2023-04-08T08:09:11;22765.81;;;-147.39;77.86
3524;BME280;1776;53.330;11.498;2023-04-08T08:11:36;22765.81;;;-147.39;77.45
3524;BME280;1776;53.330;11.498;2023-04-08T08:14:02;22773.94;;;-147.39;77.55
3524;BME280;1776;53.330;11.498;2023-04-08T08:16:28;22515.81;;;-147.39;77.53
3524;BME280;1776;53.330;11.498;2023-04-08T08:18:54;22786.13;;;-147.39;77.84
3524;BME280;1776;53.330;11.498;2023-04-08T08:21:19;22763.78;;;-147.39;77.62
3524;BME280;1776;53.330;11.498;2023-04-08T08:23:45;22763.78;;;-147.39;77.96
3524;BME280;1776;53.330;11.498;2023-04-08T08:26:11;22775.97;;;-147.39;77.74
3524;BME280;1776;53.330;11.498;2023-04-08T08:28:37;22871.50;;;-147.39;77.28
3524;BME280;1776;53.330;11.498;2023-04-08T08:31:02;22767.84;;;-147.39;77.47
3524;BME280;1776;53.330;11.498;2023-04-08T08:33:29;22802.41;;;-147.39;77.37
3524;BME280;1776;53.330;11.498;2023-04-08T08:35:55;22790.19;;;-147.39;77.29
3524;BME280;1776;53.330;11.498;2023-04-08T08:38:22;22763.78;;;-147.39;77.13
3524;BME280;1776;53.330;11.498;2023-04-08T08:40:53;22849.16;;;-147.39;76.68
3524;BME280;1776;53.330;11.498;2023-04-08T08:43:18;22812.56;;;-147.39;76.95
3524;BME280;1776;53.330;11.498;2023-04-08T08:45:44;22845.09;;;-147.39;76.74
3524;BME280;1776;53.330;11.498;2023-04-08T08:48:09;22836.94;;;-147.39;76.73
3524;BME280;1776;53.330;11.498;2023-04-08T08:50:35;22836.94;;;-147.39;76.40
3524;BME280;1776;53.330;11.498;2023-04-08T08:53:00;22857.28;;;-147.39;76.27
3524;BME280;1776;53.330;11.498;2023-04-08T08:55:29;22830.84;;;-147.39;76.03
3524;BME280;1776;53.330;11.498;2023-04-08T08:57:55;22855.25;;;-147.39;76.07
3524;BME280;1776;53.330;11.498;2023-04-08T09:00:30;22861.34;;;-147.39;76.42
3524;BME280;1776;53.330;11.498;2023-04-08T09:02:56;22881.66;;;-147.39;76.52
3524;BME280;1776;53.330;11.498;2023-04-08T09:05:46;22847.13;;;-147.39;76.82
3524;BME280;1776;53.330;11.498;2023-04-08T09:08:36;22845.09;;;-147.39;76.71
3524;BME280;1776;53.330;11.498;2023-04-08T09:11:15;22867.44;;;-147.39;76.64
3524;BME280;1776;53.330;11.498;2023-04-08T09:13:42;22873.53;;;-147.39;76.69
3524;BME280;1776;53.330;11.498;2023-04-08T09:16:09;22867.44;;;-147.39;76.55
3524;BME280;1776;53.330;11.498;2023-04-08T09:18:36;22869.47;;;-147.39;76.36
3524;BME280;1776;53.330;11.498;2023-04-08T09:21:03;22869.47;;;-147.39;76.42
3524;BME280;1776;53.330;11.498;2023-04-08T09:23:48;22887.75;;;-147.39;76.13
3524;BME280;1776;53.330;11.498;2023-04-08T09:26:16;22875.56;;;-147.39;76.27
3524;BME280;1776;53.330;11.498;2023-04-08T09:28:43;22899.97;;;-147.39;76.10
3524;BME280;1776;53.330;11.498;2023-04-08T09:31:24;22897.94;;;-147.39;75.57
3524;BME280;1776;53.330;11.498;2023-04-08T09:33:56;22879.63;;;-147.39;75.51
3524;BME280;1776;53.330;11.498;2023-04-08T09:36:22;22958.91;;;-147.39;75.10
3524;BME280;1776;53.330;11.498;2023-04-08T09:38:47;22936.56;;;-147.39;74.74
3524;BME280;1776;53.330;11.498;2023-04-08T09:41:15;22940.63;;;-147.39;74.78
3524;BME280;1776;53.330;11.498;2023-04-08T09:43:42;22946.72;;;-147.39;74.47
3524;BME280;1776;53.330;11.498;2023-04-08T09:46:13;22641.81;;;-147.39;74.84
3524;BME280;1776;53.330;11.498;2023-04-08T09:48:45;22997.53;;;-147.39;74.51
3524;BME280;1776;53.330;11.498;2023-04-08T09:51:14;22999.56;;;-147.39;74.36
3524;BME280;1776;53.330;11.498;2023-04-08T09:53:47;22997.53;;;-147.39;74.18
3524;BME280;1776;53.330;11.498;2023-04-08T09:56:16;22993.47;;;-147.39;74.33
3524;BME280;1776;53.330;11.498;2023-04-08T09:58:58;23028.03;;;-147.39;74.05
3524;BME280;1776;53.330;11.498;2023-04-08T10:01:36;23032.09;;;-147.39;73.91
3524;BME280;1776;53.330;11.498;2023-04-08T10:04:05;23023.97;;;-147.39;73.98
3524;BME280;1776;53.330;11.498;2023-04-08T10:06:33;22999.56;;;-147.39;73.36
3524;BME280;1776;53.330;11.498;2023-04-08T10:09:00;23058.50;;;-147.39;73.30
3524;BME280;1776;53.330;11.498;2023-04-08T10:11:26;23036.16;;;-147.39;73.67
3524;BME280;1776;53.330;11.498;2023-04-08T10:13:51;23030.06;;;-147.39;73.38
3524;BME280;1776;53.330;11.498;2023-04-08T10:16:21;23097.13;;;-147.39;72.83
3524;BME280;1776;53.330;11.498;2023-04-08T10:18:49;23048.34;;;-147.39;73.39
3524;BME280;1776;53.330;11.498;2023-04-08T10:23:58;23052.41;;;-147.39;73.07
3524;BME280;1776;53.330;11.498;2023-04-08T10:26:33;23103.22;;;-147.39;73.25
3524;BME280;1776;53.330;11.498;2023-04-08T10:31:52;23054.44;;;-147.39;73.39
3524;BME280;1776;53.330;11.498;2023-04-08T10:34:24;23074.78;;;-147.39;73.42
3524;BME280;1776;53.330;11.498;2023-04-08T10:36:51;23044.28;;;-147.39;73.06
3524;BME280;1776;53.330;11.498;2023-04-08T10:39:18;23076.81;;;-147.39;73.04
3524;BME280;1776;53.330;11.498;2023-04-08T10:41:44;23040.22;;;-147.39;73.23
3524;BME280;1776;53.330;11.498;2023-04-08T10:44:23;23099.16;;;-147.39;73.25
3524;BME280;1776;53.330;11.498;2023-04-08T10:46:50;23076.81;;;-147.39;73.01
3524;BME280;1776;53.330;11.498;2023-04-08T10:49:16;23070.72;;;-147.39;72.62
3524;BME280;1776;53.330;11.498;2023-04-08T10:51:43;23121.53;;;-147.39;72.23
3524;BME280;1776;53.330;11.498;2023-04-08T10:54:10;23137.78;;;-147.39;72.02
3524;BME280;1776;53.330;11.498;2023-04-08T10:56:43;23113.41;;;-147.39;72.07
3524;BME280;1776;53.330;11.498;2023-04-08T10:59:09;23154.06;;;-147.39;72.32
3524;BME280;1776;53.330;11.498;2023-04-08T11:01:38;23145.91;;;-147.39;72.33
3524;BME280;1776;53.330;11.498;2023-04-08T11:04:15;23105.25;;;-147.39;72.18
3524;BME280;1776;53.330;11.498;2023-04-08T11:06:43;23123.56;;;-147.39;72.42
3524;BME280;1776;53.330;11.498;2023-04-08T11:09:10;23105.25;;;-147.39;72.83
3524;BME280;1776;53.330;11.498;2023-04-08T11:11:35;23121.53;;;-147.39;72.83
3524;BME280;1776;53.330;11.498;2023-04-08T11:14:01;23119.50;;;-147.39;72.89
3524;BME280;1776;53.330;11.498;2023-04-08T11:16:26;23089.00;;;-147.39;72.85
3524;BME280;1776;53.330;11.498;2023-04-08T11:18:52;23097.13;;;-147.39;73.25
3524;BME280;1776;53.330;11.498;2023-04-08T11:21:17;23103.22;;;-147.39;73.40
3524;BME280;1776;53.330;11.498;2023-04-08T11:23:43;23093.06;;;-147.39;73.48
3524;BME280;1776;53.330;11.498;2023-04-08T11:26:09;23052.41;;;-147.39;73.73
3524;BME280;1776;53.330;11.498;2023-04-08T11:28:35;23048.34;;;-147.39;74.04
3524;BME280;1776;53.330;11.498;2023-04-08T11:31:00;23044.28;;;-147.39;74.45
3524;BME280;1776;53.330;11.498;2023-04-08T11:33:30;23042.25;;;-147.39;75.45
3524;BME280;1776;53.330;11.498;2023-04-08T11:35:56;23028.03;;;-147.39;75.58
3524;BME280;1776;53.330;11.498;2023-04-08T11:38:22;23001.59;;;-147.39;75.28
3524;BME280;1776;53.330;11.498;2023-04-08T11:40:56;23030.06;;;-147.39;75.27
3524;BME280;1776;53.330;11.498;2023-04-08T11:43:23;23050.38;;;-147.39;75.37
3524;BME280;1776;53.330;11.498;2023-04-08T11:45:49;23001.59;;;-147.39;75.05
3524;BME280;1776;53.330;11.498;2023-04-08T11:48:15;22916.22;;;-147.39;74.83
3524;BME280;1776;53.330;11.498;2023-04-08T11:50:41;23052.41;;;-147.39;74.86
3524;BME280;1776;53.330;11.498;2023-04-08T11:53:17;23048.34;;;-147.39;74.32
3524;BME280;1776;53.330;11.498;2023-04-08T11:55:44;23044.28;;;-147.39;74.48
3524;BME280;1776;53.330;11.498;2023-04-08T11:58:09;23048.34;;;-147.39;74.37
3524;BME280;1776;53.330;11.498;2023-04-08T12:00:35;23147.94;;;-147.39;74.48
3524;BME280;1776;53.330;11.498;2023-04-08T12:03:01;23066.66;;;-147.39;74.04
3524;BME280;1776;53.330;11.498;2023-04-08T12:05:26;23093.06;;;-147.39;73.92
3524;BME280;1776;53.330;11.498;2023-04-08T12:07:51;23050.38;;;-147.39;74.14
3524;BME280;1776;53.330;11.498;2023-04-08T12:10:17;23056.47;;;-147.39;74.42
3524;BME280;1776;53.330;11.498;2023-04-08T12:12:42;23064.59;;;-147.39;73.69
3524;BME280;1776;53.330;11.498;2023-04-08T12:15:08;23095.09;;;-147.39;73.64
3524;BME280;1776;53.330;11.498;2023-04-08T12:17:34;22991.44;;;-147.39;73.31
3524;BME280;1776;53.330;11.498;2023-04-08T12:20:00;23131.69;;;-147.39;73.50
3524;BME280;1776;53.330;11.498;2023-04-08T12:22:25;23111.38;;;-147.39;73.14
3524;BME280;1776;53.330;11.498;2023-04-08T12:24:51;23160.16;;;-147.39;73.01
3524;BME280;1776;53.330;11.498;2023-04-08T12:27:16;23133.72;;;-147.39;72.83
3524;BME280;1776;53.330;11.498;2023-04-08T12:29:41;23178.44;;;-147.39;72.58
3524;BME280;1776;53.330;11.498;2023-04-08T12:32:07;23182.50;;;-147.39;72.24
3524;BME280;1776;53.330;11.498;2023-04-08T12:34:33;23206.91;;;-147.39;72.28
3524;BME280;1776;53.330;11.498;2023-04-08T12:36:58;23186.56;;;-147.39;72.06
3524;BME280;1776;53.330;11.498;2023-04-08T12:39:23;23174.38;;;-147.39;72.20
3524;BME280;1776;53.330;11.498;2023-04-08T12:41:49;23223.16;;;-147.39;72.14
3524;BME280;1776;53.330;11.498;2023-04-08T12:44:14;23215.03;;;-147.39;72.04
3524;BME280;1776;53.330;11.498;2023-04-08T12:46:40;23227.22;;;-147.39;71.61
3524;BME280;1776;53.330;11.498;2023-04-08T12:49:05;23190.63;;;-147.39;71.41
3524;BME280;1776;53.330;11.498;2023-04-08T12:51:31;23200.81;;;-147.39;71.53
3524;BME280;1776;53.330;11.498;2023-04-08T12:53:56;23213.00;;;-147.39;71.36
3524;BME280;1776;53.330;11.498;2023-04-08T12:56:22;23206.91;;;-147.39;71.57